createdAt,value
2022-12-01T00:01:12.709Z,13.73
2022-12-01T00:06:10.727Z,15.23
2022-12-01T00:11:09.931Z,14.80
2022-12-01T00:16:13.282Z,14.43
2022-12-01T00:21:07.862Z,13.90
2022-12-01T00:26:05.286Z,13.63
2022-12-01T00:30:59.009Z,14.70
2022-12-01T00:36:00.553Z,14.30
2022-12-01T00:40:53.942Z,15.47
2022-12-01T00:45:47.362Z,15.43
2022-12-01T00:50:40.809Z,16.37
2022-12-01T00:55:35.613Z,15.67
2022-12-01T01:00:29.378Z,15.33
2022-12-01T01:05:23.089Z,15.53
2022-12-01T01:10:16.499Z,15.10
2022-12-01T01:15:12.332Z,15.87
2022-12-01T01:20:07.097Z,15.30
2022-12-01T01:25:00.480Z,14.37
2022-12-01T01:29:53.892Z,13.93
2022-12-01T01:34:48.550Z,14.60
2022-12-01T01:39:41.860Z,13.73
2022-12-01T01:44:51.273Z,14.70
2022-12-01T01:49:44.955Z,14.53
2022-12-01T01:54:45.362Z,13.67
2022-12-01T01:59:44.733Z,13.27
2022-12-01T02:04:41.545Z,13.90
2022-12-01T02:09:35.620Z,12.97
2022-12-01T02:14:58.387Z,13.30
2022-12-01T02:20:45.260Z,19.07
2022-12-01T02:25:51.719Z,14.77
2022-12-01T02:30:51.906Z,15.53
2022-12-01T02:35:51.564Z,13.53
2022-12-01T02:40:53.540Z,12.87
2022-12-01T02:45:56.630Z,14.40
2022-12-01T02:50:52.147Z,14.17
2022-12-01T02:55:58.975Z,13.23
2022-12-01T03:01:29.029Z,14.70
2022-12-01T03:06:38.238Z,13.50
2022-12-01T03:11:45.342Z,14.57
2022-12-01T03:16:51.705Z,13.83
2022-12-01T03:21:53.860Z,14.03
2022-12-01T03:26:53.583Z,14.77
2022-12-01T03:31:56.034Z,13.20
2022-12-01T03:36:54.677Z,13.83
2022-12-01T03:41:55.228Z,13.23
2022-12-01T03:46:58.126Z,14.30
2022-12-01T03:52:07.030Z,12.80
2022-12-01T03:57:10.660Z,13.53
2022-12-01T04:02:07.862Z,13.50
2022-12-01T04:07:01.389Z,13.50
2022-12-01T04:12:12.006Z,12.90
2022-12-01T04:17:06.672Z,12.87
2022-12-01T04:22:00.033Z,14.13
2022-12-01T04:26:53.390Z,13.20
2022-12-01T04:31:46.796Z,14.53
2022-12-01T04:36:41.657Z,13.80
2022-12-01T04:41:35.279Z,14.33
2022-12-01T04:46:28.646Z,13.37
2022-12-01T04:51:23.116Z,13.77
2022-12-01T04:56:17.931Z,14.33
2022-12-01T05:01:15.709Z,13.77
2022-12-01T05:06:13.261Z,15.03
2022-12-01T05:11:08.173Z,14.53
2022-12-01T05:16:09.353Z,14.73
2022-12-01T05:21:04.101Z,13.97
2022-12-01T05:25:57.868Z,13.90
2022-12-01T05:30:51.990Z,15.07
2022-12-01T05:35:46.746Z,14.47
2022-12-01T05:40:40.300Z,15.57
2022-12-01T05:45:34.290Z,15.80
2022-12-01T05:50:29.334Z,15.70
2022-12-01T05:55:24.121Z,16.07
2022-12-01T06:00:19.147Z,16.20
2022-12-01T06:05:12.603Z,16.60
2022-12-01T06:10:07.985Z,16.30
2022-12-01T06:15:02.814Z,16.83
2022-12-01T06:19:56.187Z,16.43
2022-12-01T06:24:49.534Z,16.77
2022-12-01T06:29:43.711Z,18.33
2022-12-01T06:34:38.472Z,18.07
2022-12-01T06:39:31.935Z,17.30
2022-12-01T06:44:25.388Z,16.67
2022-12-01T06:49:18.717Z,16.73
2022-12-01T06:54:15.351Z,18.60
2022-12-01T06:59:08.909Z,17.33
2022-12-01T07:04:02.670Z,18.10
2022-12-01T07:08:55.985Z,19.33
2022-12-01T07:13:50.977Z,19.60
2022-12-01T07:18:45.292Z,18.97
2022-12-01T07:23:38.826Z,18.40
2022-12-01T07:28:32.456Z,20.17
2022-12-01T07:33:27.173Z,19.00
2022-12-01T07:38:22.288Z,19.43
2022-12-01T07:43:15.993Z,20.73
2022-12-01T07:48:09.367Z,20.20
2022-12-01T07:53:04.147Z,20.23
2022-12-01T07:58:00.736Z,20.00
2022-12-01T08:02:54.199Z,19.47
2022-12-01T08:07:47.566Z,20.70
2022-12-01T08:12:42.332Z,20.50
2022-12-01T08:17:35.725Z,19.97
2022-12-01T08:22:29.085Z,20.33
2022-12-01T08:27:22.461Z,19.97
2022-12-01T08:32:18.115Z,21.00
2022-12-01T08:37:11.658Z,21.10
2022-12-01T08:42:05.264Z,21.00
2022-12-01T08:46:58.755Z,19.50
2022-12-01T08:51:53.837Z,20.13
2022-12-01T08:56:47.387Z,20.00
2022-12-01T09:01:52.124Z,19.67
2022-12-01T09:06:48.331Z,18.83
2022-12-01T09:11:44.424Z,18.57
2022-12-01T09:16:38.433Z,19.07
2022-12-01T09:21:34.930Z,18.47
2022-12-01T09:26:29.333Z,19.17
2022-12-01T09:31:24.671Z,19.03
2022-12-01T09:36:18.159Z,18.50
2022-12-01T09:41:20.388Z,18.17
2022-12-01T09:46:21.488Z,18.67
2022-12-01T09:51:18.437Z,19.40
2022-12-01T09:56:23.294Z,18.33
2022-12-01T10:01:25.846Z,18.97
2022-12-01T10:06:30.723Z,17.97
2022-12-01T10:11:34.478Z,17.90
2022-12-01T10:16:38.936Z,18.60
2022-12-01T10:22:04.520Z,18.17
2022-12-01T10:27:15.286Z,18.10
2022-12-01T10:32:19.966Z,15.87
2022-12-01T10:37:34.631Z,17.47
2022-12-01T10:42:38.754Z,15.70
2022-12-01T10:47:32.866Z,17.00
2022-12-01T10:52:37.245Z,16.30
2022-12-01T10:57:33.205Z,15.77
2022-12-01T11:02:36.326Z,16.70
2022-12-01T11:07:36.109Z,16.00
2022-12-01T11:12:30.419Z,16.77
2022-12-01T11:17:37.414Z,15.97
2022-12-01T11:22:33.933Z,16.03
2022-12-01T11:27:31.717Z,16.33
2022-12-01T11:32:39.215Z,16.60
2022-12-01T11:37:39.406Z,14.53
2022-12-01T11:42:34.563Z,16.10
2022-12-01T11:47:29.361Z,16.67
2022-12-01T11:52:33.681Z,15.83
2022-12-01T11:57:36.392Z,15.80
2022-12-01T12:02:44.525Z,14.97
2022-12-01T12:07:57.350Z,15.57
2022-12-01T12:13:15.067Z,15.60
2022-12-01T12:18:48.712Z,15.87
2022-12-01T12:24:18.194Z,15.30
2022-12-01T12:29:37.408Z,15.30
2022-12-01T12:34:48.816Z,14.90
2022-12-01T12:40:21.073Z,14.70
2022-12-01T12:45:26.515Z,14.80
2022-12-01T12:50:32.611Z,15.03
2022-12-01T13:00:38.163Z,14.13
2022-12-01T13:11:01.689Z,14.47
2022-12-01T13:16:00.778Z,13.93
2022-12-01T13:20:54.498Z,13.50
2022-12-01T13:26:01.384Z,13.47
2022-12-01T13:31:19.787Z,13.37
2022-12-01T13:41:30.812Z,13.50
2022-12-01T13:46:30.802Z,13.20
2022-12-01T13:51:25.394Z,13.33
2022-12-01T13:56:48.388Z,15.20
2022-12-01T14:12:25.362Z,13.90
2022-12-01T14:17:30.627Z,12.53
2022-12-01T14:22:46.900Z,14.03
2022-12-01T14:27:43.311Z,13.97
2022-12-01T14:32:39.577Z,15.10
2022-12-01T14:48:00.882Z,15.30
2022-12-01T14:53:00.119Z,13.20
2022-12-01T14:58:06.342Z,14.77
2022-12-01T15:03:08.310Z,14.90
2022-12-01T15:08:40.884Z,15.50
2022-12-01T15:13:42.242Z,14.70
2022-12-01T15:18:38.481Z,15.73
2022-12-01T15:23:31.799Z,15.33
2022-12-01T15:28:33.664Z,14.60
2022-12-01T15:33:36.786Z,15.33
2022-12-01T15:38:36.814Z,15.50
2022-12-01T15:43:37.839Z,15.90
2022-12-01T15:48:35.445Z,16.03
2022-12-01T15:53:33.937Z,15.97
2022-12-01T16:03:29.489Z,15.37
2022-12-01T16:08:27.132Z,15.63
2022-12-01T16:13:45.478Z,16.07
2022-12-01T16:18:38.824Z,13.93
2022-12-01T16:23:34.085Z,15.27
2022-12-01T16:28:35.821Z,15.03
2022-12-01T16:33:30.937Z,15.13
2022-12-01T16:38:31.489Z,14.80
2022-12-01T16:43:27.978Z,15.83
2022-12-01T16:48:21.758Z,15.63
2022-12-01T16:53:17.207Z,14.27
2022-12-01T16:58:24.284Z,14.37
2022-12-01T17:03:18.613Z,14.60
2022-12-01T17:08:12.122Z,15.17
2022-12-01T17:13:06.860Z,15.77
2022-12-01T17:18:00.213Z,15.47
2022-12-01T17:22:53.606Z,16.07
2022-12-01T17:27:47.015Z,16.13
2022-12-01T17:32:41.709Z,15.87
2022-12-01T17:37:36.942Z,17.97
2022-12-01T17:42:32.573Z,14.43
2022-12-01T17:47:27.170Z,14.80
2022-12-01T17:52:26.644Z,15.27
2022-12-01T17:57:21.795Z,15.07
2022-12-01T18:02:15.243Z,15.63
2022-12-01T18:07:08.634Z,16.93
2022-12-01T18:12:03.447Z,15.00
2022-12-01T18:16:56.779Z,17.00
2022-12-01T18:21:50.796Z,15.83
2022-12-01T18:26:44.775Z,16.20
2022-12-01T18:31:40.443Z,16.33
2022-12-01T18:36:38.332Z,15.37
2022-12-01T18:41:32.220Z,15.63
2022-12-01T18:46:25.704Z,15.53
2022-12-01T18:51:22.103Z,14.27
2022-12-01T18:56:17.340Z,13.50
2022-12-01T19:01:21.517Z,14.37
2022-12-01T19:06:15.034Z,13.50
2022-12-01T19:16:12.116Z,11.90
2022-12-01T19:21:08.232Z,12.07
2022-12-01T19:26:06.089Z,12.77
2022-12-01T19:30:59.552Z,12.90
2022-12-01T19:35:54.468Z,13.20
2022-12-01T19:40:47.948Z,12.23
2022-12-01T19:45:41.779Z,12.37
2022-12-01T19:50:36.717Z,12.13
2022-12-01T19:55:31.709Z,12.30
2022-12-01T20:00:34.019Z,12.47
2022-12-01T20:05:27.954Z,12.07
2022-12-01T20:10:28.227Z,12.70
2022-12-01T20:15:23.377Z,12.03
2022-12-01T20:20:17.825Z,12.80
2022-12-01T20:25:11.151Z,12.20
2022-12-01T20:30:05.107Z,13.37
2022-12-01T20:34:59.845Z,13.17
2022-12-01T20:39:53.226Z,13.53
2022-12-01T20:44:46.680Z,14.10
2022-12-01T20:49:40.135Z,13.60
2022-12-01T20:54:35.046Z,13.03
2022-12-01T20:59:29.949Z,14.23
2022-12-01T21:04:23.426Z,15.07
2022-12-01T21:09:16.899Z,14.00
2022-12-01T21:14:20.979Z,15.33
2022-12-01T21:19:23.036Z,14.47
2022-12-01T21:24:19.906Z,12.50
2022-12-01T21:29:25.063Z,11.17
2022-12-01T21:34:22.126Z,13.07
2022-12-01T21:39:18.499Z,14.37
2022-12-01T21:44:17.309Z,13.83
2022-12-01T21:49:22.671Z,14.23
2022-12-01T21:54:21.026Z,12.93
2022-12-01T21:59:20.534Z,13.17
2022-12-01T22:04:24.720Z,12.17
2022-12-01T22:56:31.981Z,12.83
2022-12-01T23:01:30.246Z,13.47
2022-12-01T23:07:08.394Z,13.77
2022-12-01T23:25:31.456Z,15.47
2022-12-01T23:30:25.173Z,15.50
2022-12-01T23:35:19.773Z,14.60
2022-12-01T23:40:24.476Z,15.60
2022-12-01T23:45:26.909Z,16.23
2022-12-01T23:50:25.802Z,15.80
2022-12-01T23:55:26.754Z,15.17
